createdAt,value
2023-03-16T00:01:02.983Z,99403.41
2023-03-16T00:03:31.644Z,99386.72
2023-03-16T00:06:00.210Z,99403.00
2023-03-16T00:08:28.176Z,99379.50
2023-03-16T00:10:56.317Z,99406.19
2023-03-16T00:13:25.682Z,99401.78
2023-03-16T00:16:01.925Z,99402.25
2023-03-16T00:18:30.940Z,99403.81
2023-03-16T00:21:02.463Z,99361.00
2023-03-16T00:23:35.620Z,99402.34
2023-03-16T00:26:08.350Z,99408.38
2023-03-16T00:28:37.027Z,99397.25
2023-03-16T00:31:11.990Z,99367.09
2023-03-16T00:33:42.907Z,99391.63
2023-03-16T00:36:11.731Z,99397.91
2023-03-16T00:38:45.632Z,99366.75
2023-03-16T00:41:15.798Z,99420.00
2023-03-16T00:43:45.525Z,99367.03
2023-03-16T00:46:18.666Z,99393.59
2023-03-16T00:48:47.865Z,99364.69
2023-03-16T00:51:18.756Z,99384.69
2023-03-16T00:53:47.436Z,99436.50
2023-03-16T00:56:16.625Z,99428.81
2023-03-16T00:58:44.657Z,99389.44
2023-03-16T01:01:17.126Z,99434.50
2023-03-16T01:03:46.005Z,99364.47
2023-03-16T01:06:17.699Z,99368.34
2023-03-16T01:08:45.859Z,99424.13
2023-03-16T01:11:21.979Z,99396.19
2023-03-16T01:13:54.555Z,99435.88
2023-03-16T01:16:25.775Z,99439.25
2023-03-16T01:18:54.932Z,99441.25
2023-03-16T01:21:24.510Z,99366.16
2023-03-16T01:23:53.961Z,99447.91
2023-03-16T01:26:25.400Z,99388.31
2023-03-16T01:28:54.600Z,99434.75
2023-03-16T01:31:24.043Z,99384.31
2023-03-16T01:33:52.427Z,99391.97
2023-03-16T01:36:25.728Z,99412.41
2023-03-16T01:39:00.523Z,99371.13
2023-03-16T01:41:33.386Z,99338.13
2023-03-16T01:44:01.549Z,99392.31
2023-03-16T01:46:31.039Z,99271.00
2023-03-16T01:49:27.093Z,99439.00
2023-03-16T01:52:12.601Z,99445.91
2023-03-16T01:55:13.884Z,99442.47
2023-03-16T01:57:48.334Z,99437.47
2023-03-16T02:00:23.647Z,99414.44
2023-03-16T02:03:16.784Z,99430.81
2023-03-16T02:06:03.449Z,99384.41
2023-03-16T02:08:35.521Z,99451.06
2023-03-16T02:11:05.762Z,99456.22
2023-03-16T02:13:43.611Z,99432.00
2023-03-16T02:16:14.586Z,99408.44
2023-03-16T02:18:42.619Z,99389.63
2023-03-16T02:21:20.885Z,99475.28
2023-03-16T02:23:50.807Z,99472.59
2023-03-16T02:26:48.087Z,99471.34
2023-03-16T02:29:59.487Z,99487.47
2023-03-16T02:32:31.973Z,99413.09
2023-03-16T02:35:03.115Z,99481.63
2023-03-16T02:37:34.064Z,99478.25
2023-03-16T02:40:32.801Z,99435.59
2023-03-16T02:43:22.946Z,99486.69
2023-03-16T02:46:05.384Z,99421.31
2023-03-16T02:49:05.940Z,99491.91
2023-03-16T02:51:34.053Z,99321.84
2023-03-16T02:54:02.072Z,99446.38
2023-03-16T02:56:32.816Z,99504.97
2023-03-16T02:59:01.528Z,99507.84
2023-03-16T03:01:31.984Z,99497.78
2023-03-16T03:03:59.901Z,99521.78
2023-03-16T03:06:28.355Z,99463.47
2023-03-16T03:08:56.814Z,99508.25
2023-03-16T03:11:25.249Z,99521.16
2023-03-16T03:13:53.282Z,99485.97
2023-03-16T03:16:25.054Z,99474.41
2023-03-16T03:18:53.292Z,99477.47
2023-03-16T03:21:23.854Z,99536.44
2023-03-16T03:23:52.555Z,99531.91
2023-03-16T03:26:23.479Z,99525.88
2023-03-16T03:28:52.731Z,99530.03
2023-03-16T03:31:23.259Z,99540.00
2023-03-16T03:33:53.732Z,99508.69
2023-03-16T03:36:24.355Z,99526.75
2023-03-16T03:38:54.886Z,99548.44
2023-03-16T03:41:23.778Z,99489.25
2023-03-16T03:43:53.993Z,99549.59
2023-03-16T03:46:22.066Z,99547.75
2023-03-16T03:48:51.101Z,99503.94
2023-03-16T03:51:19.765Z,99532.22
2023-03-16T03:54:00.227Z,99555.28
2023-03-16T03:56:40.230Z,99563.72
2023-03-16T03:59:12.792Z,99508.06
2023-03-16T04:02:16.985Z,99573.28
2023-03-16T04:04:50.661Z,99566.59
2023-03-16T04:07:19.333Z,99574.19
2023-03-16T04:09:48.039Z,99520.22
2023-03-16T04:12:26.770Z,99583.56
2023-03-16T04:14:55.832Z,99588.72
2023-03-16T04:17:26.268Z,99583.25
2023-03-16T04:19:56.841Z,99541.97
2023-03-16T04:22:25.741Z,99602.25
2023-03-16T04:24:54.221Z,99558.25
2023-03-16T04:27:24.088Z,99597.25
2023-03-16T04:29:55.808Z,99613.84
2023-03-16T04:32:26.606Z,99554.41
2023-03-16T04:34:56.636Z,99611.69
2023-03-16T04:37:34.827Z,99607.59
2023-03-16T04:40:16.033Z,99620.50
2023-03-16T04:42:48.636Z,99578.38
2023-03-16T04:45:21.266Z,99558.69
2023-03-16T04:47:53.099Z,99626.44
2023-03-16T04:50:21.697Z,99621.59
2023-03-16T04:52:54.171Z,99636.97
2023-03-16T04:55:23.218Z,99643.84
2023-03-16T04:57:52.702Z,99592.88
2023-03-16T05:00:23.828Z,99644.25
2023-03-16T05:03:04.179Z,99621.19
2023-03-16T05:05:32.432Z,99659.50
2023-03-16T05:08:01.738Z,99658.41
2023-03-16T05:10:34.137Z,99605.66
2023-03-16T05:13:02.603Z,99659.81
2023-03-16T05:15:30.655Z,99657.81
2023-03-16T05:18:12.848Z,99656.06
2023-03-16T05:20:42.745Z,99642.53
2023-03-16T05:23:12.008Z,99648.59
2023-03-16T05:25:49.111Z,99658.44
2023-03-16T05:28:19.899Z,99618.75
2023-03-16T05:30:55.302Z,99661.75
2023-03-16T05:33:27.300Z,99664.41
2023-03-16T05:36:08.934Z,99606.94
2023-03-16T05:38:39.699Z,99665.00
2023-03-16T05:41:11.102Z,99598.28
2023-03-16T05:43:48.433Z,99627.78
2023-03-16T05:46:20.671Z,99681.88
2023-03-16T05:48:52.087Z,99681.16
2023-03-16T05:51:22.930Z,99625.84
2023-03-16T05:53:51.032Z,99621.44
2023-03-16T05:56:29.818Z,99614.16
2023-03-16T05:59:00.570Z,99684.16
2023-03-16T06:01:29.378Z,99699.03
2023-03-16T06:03:57.857Z,99639.16
2023-03-16T06:06:28.977Z,99642.16
2023-03-16T06:09:03.876Z,99695.00
2023-03-16T06:11:33.069Z,99692.91
2023-03-16T06:14:02.088Z,99714.09
2023-03-16T06:16:30.409Z,99652.13
2023-03-16T06:19:00.844Z,99688.13
2023-03-16T06:21:30.758Z,99707.66
2023-03-16T06:24:07.963Z,99699.00
2023-03-16T06:26:37.695Z,99684.25
2023-03-16T06:29:08.685Z,99670.09
2023-03-16T06:31:39.202Z,99716.38
2023-03-16T06:34:08.081Z,99663.06
2023-03-16T06:36:39.328Z,99678.19
2023-03-16T06:39:10.947Z,99718.00
2023-03-16T06:41:42.993Z,99716.72
2023-03-16T06:44:13.922Z,99709.47
2023-03-16T06:46:52.459Z,99715.75
2023-03-16T06:49:21.694Z,99714.38
2023-03-16T06:51:50.924Z,99726.13
2023-03-16T06:54:20.155Z,99715.63
2023-03-16T06:56:49.708Z,99670.38
2023-03-16T06:59:17.942Z,99719.34
2023-03-16T07:01:46.252Z,99667.66
2023-03-16T07:04:14.560Z,99715.28
2023-03-16T07:06:43.084Z,99619.81
2023-03-16T07:09:13.501Z,99675.78
2023-03-16T07:11:43.153Z,99669.75
2023-03-16T07:14:11.979Z,99667.03
2023-03-16T07:16:41.332Z,99720.38
2023-03-16T07:19:11.669Z,99622.41
2023-03-16T07:21:40.927Z,99716.41
2023-03-16T07:24:16.873Z,99720.97
2023-03-16T07:26:46.453Z,99719.03
2023-03-16T07:29:26.597Z,99717.63
2023-03-16T07:31:55.575Z,99723.66
2023-03-16T07:34:30.030Z,99709.53
2023-03-16T07:36:59.975Z,99696.38
2023-03-16T07:39:31.944Z,99711.00
2023-03-16T07:42:08.106Z,99664.56
2023-03-16T07:44:58.863Z,99718.59
2023-03-16T07:47:27.561Z,99719.84
2023-03-16T07:50:02.626Z,99682.91
2023-03-16T07:52:31.394Z,99721.53
2023-03-16T07:54:59.839Z,99725.78
2023-03-16T07:57:28.303Z,99732.34
2023-03-16T07:59:56.509Z,99728.41
2023-03-16T08:02:24.657Z,99701.53
2023-03-16T08:04:54.333Z,99689.81
2023-03-16T08:07:23.108Z,99750.69
2023-03-16T08:09:59.721Z,99747.75
2023-03-16T08:12:34.207Z,99735.25
2023-03-16T08:15:03.419Z,99745.66
2023-03-16T08:17:41.960Z,99699.25
2023-03-16T08:20:16.043Z,99737.97
2023-03-16T08:22:46.789Z,99735.28
2023-03-16T08:27:40.936Z,99681.06
2023-03-16T08:30:12.748Z,99729.72
2023-03-16T08:32:46.245Z,99679.63
2023-03-16T08:35:16.821Z,99704.44
2023-03-16T08:37:46.568Z,99719.50
2023-03-16T08:40:16.433Z,99735.31
2023-03-16T08:42:50.374Z,99690.94
2023-03-16T08:45:20.816Z,99631.81
2023-03-16T08:47:50.763Z,99674.19
2023-03-16T08:50:20.074Z,99723.13
2023-03-16T08:52:49.234Z,99701.00
2023-03-16T08:55:17.659Z,99752.91
2023-03-16T08:57:46.751Z,99747.38
2023-03-16T09:00:15.702Z,99687.31
2023-03-16T09:02:44.821Z,99710.03
2023-03-16T09:05:16.145Z,99746.25
2023-03-16T09:07:44.498Z,99743.19
2023-03-16T09:10:16.496Z,99739.63
2023-03-16T09:12:45.997Z,99717.78
2023-03-16T09:15:14.421Z,99715.06
2023-03-16T09:17:43.907Z,99750.53
2023-03-16T09:20:34.737Z,99702.78
2023-03-16T09:23:03.774Z,99759.00
2023-03-16T09:25:32.799Z,99757.22
2023-03-16T09:28:01.296Z,99772.63
2023-03-16T09:30:30.526Z,99783.78
2023-03-16T09:32:59.792Z,99773.44
2023-03-16T09:35:28.301Z,99633.97
2023-03-16T09:38:06.661Z,99770.03
2023-03-16T09:40:37.464Z,99774.41
2023-03-16T09:43:49.513Z,99798.50
2023-03-16T09:46:47.578Z,99725.75
2023-03-16T09:49:24.160Z,99767.75
2023-03-16T09:52:24.781Z,99776.97
2023-03-16T09:55:35.042Z,99768.50
2023-03-16T09:58:14.108Z,99681.91
2023-03-16T10:01:11.356Z,99761.63
2023-03-16T10:04:00.374Z,99766.84
2023-03-16T10:06:29.251Z,99766.31
2023-03-16T10:09:26.416Z,99764.25
2023-03-16T10:11:58.140Z,99721.00
2023-03-16T10:14:55.696Z,99761.00
2023-03-16T10:17:50.243Z,99772.47
2023-03-16T10:20:23.231Z,99760.56
2023-03-16T10:22:54.475Z,99719.78
2023-03-16T10:25:47.302Z,99782.97
2023-03-16T10:28:25.688Z,99785.81
2023-03-16T10:30:58.300Z,99781.41
2023-03-16T10:33:31.622Z,99779.94
2023-03-16T10:36:31.450Z,99763.94
2023-03-16T10:39:06.194Z,99780.94
2023-03-16T10:41:43.394Z,99779.22
2023-03-16T10:44:27.333Z,99774.84
2023-03-16T10:47:03.900Z,99771.84
2023-03-16T10:49:48.872Z,99735.44
2023-03-16T10:52:42.848Z,99742.28
2023-03-16T10:55:41.225Z,99692.00
2023-03-16T10:58:10.171Z,99736.16
2023-03-16T11:00:43.612Z,99742.09
2023-03-16T11:03:25.533Z,99740.25
2023-03-16T11:06:04.910Z,99687.16
2023-03-16T11:08:42.471Z,99737.09
2023-03-16T11:11:27.562Z,99737.94
2023-03-16T11:14:03.478Z,99674.75
2023-03-16T11:16:40.234Z,99738.44
2023-03-16T11:19:34.194Z,99716.03
2023-03-16T11:22:16.267Z,99746.03
2023-03-16T11:25:03.169Z,99746.31
2023-03-16T11:27:47.074Z,99739.84
2023-03-16T11:30:31.362Z,99687.00
2023-03-16T11:33:00.809Z,99712.75
2023-03-16T11:36:28.551Z,99714.72
2023-03-16T11:39:34.425Z,99676.09
2023-03-16T11:43:00.394Z,99718.03
2023-03-16T11:46:24.916Z,99671.91
2023-03-16T11:49:02.715Z,99709.28
2023-03-16T11:51:57.193Z,99653.84
2023-03-16T11:54:56.302Z,99695.75
2023-03-16T11:58:04.330Z,99642.13
2023-03-16T12:00:58.011Z,99701.75
2023-03-16T12:03:38.186Z,99691.88
2023-03-16T12:06:53.551Z,99718.41
2023-03-16T12:09:52.438Z,99730.13
2023-03-16T12:12:34.787Z,99699.94
2023-03-16T12:15:36.725Z,99705.19
2023-03-16T12:18:45.435Z,99649.31
2023-03-16T12:21:34.214Z,99693.94
2023-03-16T12:24:12.471Z,99663.13
2023-03-16T12:26:43.026Z,99689.13
2023-03-16T12:29:34.411Z,99639.63
2023-03-16T12:32:37.700Z,99680.94
2023-03-16T12:36:04.127Z,99666.56
2023-03-16T12:39:07.091Z,99673.19
2023-03-16T12:41:38.480Z,99657.06
2023-03-16T12:44:27.316Z,99648.00
2023-03-16T12:47:04.914Z,99606.69
2023-03-16T12:49:37.346Z,99672.97
2023-03-16T12:52:15.758Z,99608.84
2023-03-16T12:54:52.698Z,99681.53
2023-03-16T12:57:27.521Z,99654.69
2023-03-16T13:00:00.898Z,99664.47
2023-03-16T13:02:36.116Z,99606.00
2023-03-16T13:05:29.359Z,99597.88
2023-03-16T13:08:16.608Z,99658.72
2023-03-16T13:11:10.015Z,99655.81
2023-03-16T13:14:09.297Z,99659.84
2023-03-16T13:16:44.106Z,99656.28
2023-03-16T13:19:40.310Z,99671.16
2023-03-16T13:22:30.735Z,99665.72
2023-03-16T13:25:23.192Z,99684.34
2023-03-16T13:27:56.019Z,99669.38
2023-03-16T13:30:35.502Z,99516.78
2023-03-16T13:33:18.429Z,99654.38
2023-03-16T13:35:50.291Z,99625.00
2023-03-16T13:38:23.405Z,99641.66
2023-03-16T13:40:55.731Z,99637.22
2023-03-16T13:43:33.027Z,99677.78
2023-03-16T13:46:01.742Z,99662.09
2023-03-16T13:48:30.103Z,99643.91
2023-03-16T13:50:58.905Z,99655.94
2023-03-16T13:53:33.180Z,99618.03
2023-03-16T13:56:02.866Z,99679.50
2023-03-16T13:58:36.054Z,99667.03
2023-03-16T14:01:16.108Z,99683.13
2023-03-16T14:03:45.581Z,99683.66
2023-03-16T14:06:31.639Z,99549.09
2023-03-16T14:09:04.730Z,99647.28
2023-03-16T14:11:33.224Z,99656.59
2023-03-16T14:14:13.590Z,99722.91
2023-03-16T14:16:42.657Z,99658.03
2023-03-16T14:19:32.641Z,99721.97
2023-03-16T14:22:07.145Z,99716.75
2023-03-16T14:24:39.560Z,99697.41
2023-03-16T14:27:28.944Z,99702.53
2023-03-16T14:30:18.567Z,99555.44
2023-03-16T14:33:04.749Z,99681.59
2023-03-16T14:35:43.027Z,99661.31
2023-03-16T14:38:35.440Z,99684.97
2023-03-16T14:41:09.859Z,99686.97
2023-03-16T14:43:51.697Z,99686.59
2023-03-16T14:46:40.694Z,99676.19
2023-03-16T14:49:29.492Z,99687.28
2023-03-16T14:52:27.545Z,99684.03
2023-03-16T14:54:55.830Z,99685.69
2023-03-16T14:57:26.067Z,99700.63
2023-03-16T14:59:55.073Z,99700.69
2023-03-16T15:02:32.634Z,99704.94
2023-03-16T15:05:24.074Z,99663.22
2023-03-16T15:07:55.717Z,99633.84
2023-03-16T15:10:36.491Z,99683.81
2023-03-16T15:13:53.346Z,99645.25
2023-03-16T15:16:24.039Z,99688.63
2023-03-16T15:19:43.428Z,99693.13
2023-03-16T15:22:14.166Z,99642.22
2023-03-16T15:24:42.811Z,99701.19
2023-03-16T15:27:26.039Z,99639.81
2023-03-16T15:29:54.144Z,99667.69
2023-03-16T15:32:24.191Z,99715.69
2023-03-16T15:34:53.850Z,99703.22
2023-03-16T15:37:24.655Z,99711.59
2023-03-16T15:39:53.633Z,99709.44
2023-03-16T15:42:23.324Z,99734.59
2023-03-16T15:44:52.683Z,99717.19
2023-03-16T15:47:24.206Z,99751.41
2023-03-16T15:49:53.937Z,99749.38
2023-03-16T15:52:32.775Z,99745.84
2023-03-16T15:55:08.265Z,99756.53
2023-03-16T15:57:36.834Z,99760.22
2023-03-16T16:00:06.223Z,99779.94
2023-03-16T16:02:35.741Z,99785.97
2023-03-16T16:05:04.564Z,99783.31
2023-03-16T16:07:32.625Z,99773.84
2023-03-16T16:10:02.403Z,99811.75
2023-03-16T16:12:32.690Z,99812.25
2023-03-16T16:15:00.838Z,99771.28
2023-03-16T16:17:45.817Z,99839.22
2023-03-16T16:20:32.232Z,99852.53
2023-03-16T16:23:03.091Z,99866.91
2023-03-16T16:25:42.271Z,99862.72
2023-03-16T16:28:22.466Z,99875.94
2023-03-16T16:30:54.183Z,99848.09
2023-03-16T16:33:23.157Z,99897.72
2023-03-16T16:35:53.416Z,99883.34
2023-03-16T16:38:23.009Z,99892.13
2023-03-16T16:40:53.222Z,99826.59
2023-03-16T16:43:47.114Z,99917.63
2023-03-16T16:46:20.052Z,99914.44
2023-03-16T16:49:05.399Z,99865.00
2023-03-16T16:51:34.590Z,99919.09
2023-03-16T16:54:10.769Z,99924.25
2023-03-16T16:56:39.776Z,99917.25
2023-03-16T16:59:20.393Z,99926.28
2023-03-16T17:01:52.670Z,99904.63
2023-03-16T17:04:25.705Z,99948.03
2023-03-16T17:07:02.250Z,99953.53
2023-03-16T17:09:32.314Z,99897.72
2023-03-16T17:12:02.420Z,99945.56
2023-03-16T17:14:31.746Z,99933.25
2023-03-16T17:17:02.905Z,99920.13
2023-03-16T17:19:31.739Z,99954.50
2023-03-16T17:22:00.468Z,99957.53
2023-03-16T17:24:29.918Z,99964.69
2023-03-16T17:27:00.859Z,99956.22
2023-03-16T17:29:33.818Z,99963.09
2023-03-16T17:32:08.470Z,99960.66
2023-03-16T17:34:36.630Z,99974.78
2023-03-16T17:37:07.339Z,99928.16
2023-03-16T17:39:35.736Z,99932.78
2023-03-16T17:42:14.144Z,99973.59
2023-03-16T17:44:51.786Z,99983.78
2023-03-16T17:47:26.760Z,99933.47
2023-03-16T17:49:57.293Z,99983.97
2023-03-16T17:52:29.585Z,99942.59
2023-03-16T17:54:58.086Z,99999.66
2023-03-16T17:57:33.771Z,99947.84
2023-03-16T18:00:09.424Z,99954.88
2023-03-16T18:03:04.241Z,100006.22
2023-03-16T18:05:36.862Z,100001.03
2023-03-16T18:08:26.093Z,100001.13
2023-03-16T18:11:05.319Z,100013.63
2023-03-16T18:13:37.898Z,100024.06
2023-03-16T18:16:15.202Z,100009.31
2023-03-16T18:18:43.697Z,100023.59
2023-03-16T18:21:24.972Z,100020.19
2023-03-16T18:23:54.208Z,100025.34
2023-03-16T18:26:24.241Z,100027.31
2023-03-16T18:28:53.909Z,100029.38
2023-03-16T18:31:26.671Z,100031.34
2023-03-16T18:34:01.352Z,100021.44
2023-03-16T18:36:36.512Z,100035.16
2023-03-16T18:39:13.193Z,100038.69
2023-03-16T18:41:41.836Z,100016.09
2023-03-16T18:44:26.342Z,100043.94
2023-03-16T18:47:02.131Z,100043.56
2023-03-16T18:49:37.701Z,100009.69
2023-03-16T18:52:23.798Z,99986.28
2023-03-16T18:54:53.479Z,99996.97
2023-03-16T18:57:28.227Z,100011.19
2023-03-16T18:59:57.283Z,100054.28
2023-03-16T19:02:39.319Z,100072.06
2023-03-16T19:05:32.682Z,100069.53
2023-03-16T19:08:01.302Z,100029.16
2023-03-16T19:10:36.066Z,100000.66
2023-03-16T19:13:11.168Z,100084.59
2023-03-16T19:15:39.904Z,100085.06
2023-03-16T19:18:08.323Z,100079.53
2023-03-16T19:20:42.443Z,100084.41
2023-03-16T19:23:50.659Z,100088.03
2023-03-16T19:26:19.802Z,100092.00
2023-03-16T19:28:52.136Z,100090.56
2023-03-16T19:31:28.918Z,100103.72
2023-03-16T19:33:58.874Z,100110.28
2023-03-16T19:36:31.143Z,100100.41
2023-03-16T19:38:59.958Z,100068.31
2023-03-16T19:41:36.163Z,100110.69
2023-03-16T19:44:27.368Z,100113.94
2023-03-16T19:46:56.531Z,100059.22
2023-03-16T19:49:27.304Z,100059.53
2023-03-16T19:51:56.532Z,100123.47
2023-03-16T19:54:28.489Z,100061.44
2023-03-16T19:57:00.318Z,100114.84
2023-03-16T19:59:32.940Z,100127.66
2023-03-16T20:02:01.756Z,100073.84
2023-03-16T20:04:30.789Z,100086.44
2023-03-16T20:06:59.192Z,100129.63
2023-03-16T20:09:28.018Z,100075.59
2023-03-16T20:11:56.887Z,100094.69
2023-03-16T20:14:33.768Z,100138.66
2023-03-16T20:17:02.480Z,100136.34
2023-03-16T20:19:30.814Z,100088.03
2023-03-16T20:21:59.589Z,100103.41
2023-03-16T20:24:29.078Z,100138.88
2023-03-16T20:26:57.819Z,100131.66
2023-03-16T20:29:32.310Z,100135.25
2023-03-16T20:32:02.626Z,100150.53
2023-03-16T20:34:32.762Z,100132.16
2023-03-16T20:37:01.562Z,100145.50
2023-03-16T20:39:30.578Z,100142.88
2023-03-16T20:41:59.238Z,100065.28
2023-03-16T20:44:30.626Z,100129.00
2023-03-16T20:46:59.088Z,100134.97
2023-03-16T20:49:37.036Z,100138.66
2023-03-16T20:52:25.371Z,100157.16
2023-03-16T20:54:54.185Z,100161.28
2023-03-16T20:57:26.390Z,100163.41
2023-03-16T20:59:55.700Z,100161.16
2023-03-16T21:02:35.427Z,100150.19
2023-03-16T21:05:07.466Z,100112.50
2023-03-16T21:07:37.347Z,100110.97
2023-03-16T21:10:05.874Z,100146.91
2023-03-16T21:12:39.760Z,100160.56
2023-03-16T21:15:31.465Z,100160.75
2023-03-16T21:18:05.208Z,100131.53
2023-03-16T21:20:36.252Z,100170.59
2023-03-16T21:23:05.567Z,100162.28
2023-03-16T21:25:41.204Z,100144.53
2023-03-16T21:28:12.687Z,100155.72
2023-03-16T21:30:51.854Z,100179.59
2023-03-16T21:33:35.931Z,100175.75
2023-03-16T21:36:10.405Z,100174.66
2023-03-16T21:38:38.688Z,100156.69
2023-03-16T21:41:07.682Z,100170.81
2023-03-16T21:43:36.519Z,100182.22
2023-03-16T21:46:07.232Z,100185.38
2023-03-16T21:48:41.696Z,100182.38
2023-03-16T21:51:20.998Z,100171.41
2023-03-16T21:53:50.234Z,100180.63
2023-03-16T21:56:25.505Z,100188.63
2023-03-16T21:58:54.943Z,100188.94
2023-03-16T22:01:30.602Z,100185.75
2023-03-16T22:04:08.856Z,100139.88
2023-03-16T22:06:37.878Z,100185.72
2023-03-16T22:09:15.004Z,100144.22
2023-03-16T22:11:43.215Z,100181.88
2023-03-16T22:14:11.535Z,100176.72
2023-03-16T22:16:40.275Z,100176.59
2023-03-16T22:19:15.997Z,100163.94
2023-03-16T22:21:47.378Z,100181.59
2023-03-16T22:24:25.688Z,100175.44
2023-03-16T22:26:54.947Z,100171.88
2023-03-16T22:29:33.619Z,100118.09
2023-03-16T22:32:12.799Z,100162.84
2023-03-16T22:34:53.805Z,100173.59
2023-03-16T22:37:26.768Z,100184.16
2023-03-16T22:39:57.488Z,100167.72
2023-03-16T22:42:39.515Z,100183.69
2023-03-16T22:45:25.944Z,100156.22
2023-03-16T22:47:56.970Z,100180.13
2023-03-16T22:50:29.037Z,100179.13
2023-03-16T22:53:02.149Z,100173.53
2023-03-16T22:55:39.485Z,100183.00
2023-03-16T22:58:18.048Z,100187.28
2023-03-16T23:00:46.807Z,100132.53
2023-03-16T23:03:25.089Z,100181.78
2023-03-16T23:05:53.864Z,100178.69
2023-03-16T23:08:24.084Z,100188.31
2023-03-16T23:10:53.994Z,100188.56
2023-03-16T23:13:25.908Z,100196.63
2023-03-16T23:15:55.535Z,100189.81
2023-03-16T23:18:27.145Z,100207.13
2023-03-16T23:20:55.162Z,100185.84
2023-03-16T23:23:26.787Z,100145.84
2023-03-16T23:25:54.769Z,100190.19
2023-03-16T23:28:24.683Z,100164.59
2023-03-16T23:30:52.934Z,100164.72
2023-03-16T23:33:21.930Z,100137.28
2023-03-16T23:35:50.852Z,100146.03
2023-03-16T23:38:19.294Z,100171.56
2023-03-16T23:40:47.341Z,100188.44
2023-03-16T23:43:16.223Z,100199.63
2023-03-16T23:45:47.057Z,100211.94
2023-03-16T23:48:21.472Z,100205.59
2023-03-16T23:50:55.474Z,100220.03
2023-03-16T23:53:25.626Z,100161.53
2023-03-16T23:55:53.617Z,100148.28
2023-03-16T23:58:22.015Z,100215.19
